createdAt,value
2018-07-24T00:01:41.331Z,99.90
2018-07-24T00:04:09.633Z,99.90
2018-07-24T00:06:39.364Z,99.90
2018-07-24T00:09:08.461Z,99.90
2018-07-24T00:11:36.635Z,99.90
2018-07-24T00:16:33.643Z,99.90
2018-07-24T00:19:01.596Z,99.90
2018-07-24T00:21:30.301Z,99.90
2018-07-24T00:23:58.898Z,99.90
2018-07-24T00:26:27.153Z,99.90
2018-07-24T00:28:55.633Z,99.90
2018-07-24T00:31:23.891Z,99.90
2018-07-24T00:33:52.031Z,99.90
2018-07-24T00:36:20.957Z,99.90
2018-07-24T00:38:49.809Z,99.90
2018-07-24T00:41:19.591Z,99.90
2018-07-24T00:43:48.688Z,99.90
2018-07-24T00:46:17.808Z,99.90
2018-07-24T00:48:46.106Z,99.90
2018-07-24T00:51:16.473Z,99.90
2018-07-24T00:53:44.440Z,99.90
2018-07-24T00:56:14.254Z,99.90
2018-07-24T00:58:42.713Z,99.90
2018-07-24T01:01:11.254Z,99.90
2018-07-24T01:03:39.369Z,99.90
2018-07-24T01:06:07.790Z,99.90
2018-07-24T01:08:37.524Z,99.90
2018-07-24T01:11:05.576Z,99.90
2018-07-24T01:16:01.531Z,99.90
2018-07-24T01:18:30.761Z,99.90
2018-07-24T01:20:59.033Z,99.90
2018-07-24T01:23:27.152Z,99.90
2018-07-24T01:28:23.915Z,99.90
2018-07-24T01:30:52.106Z,99.90
2018-07-24T01:33:20.249Z,99.90
2018-07-24T01:35:48.297Z,99.90
2018-07-24T01:38:17.456Z,99.90
2018-07-24T01:40:45.835Z,99.90
2018-07-24T01:43:14.912Z,99.90
2018-07-24T01:45:43.226Z,99.90
2018-07-24T01:48:12.886Z,99.90
2018-07-24T01:53:09.082Z,99.90
2018-07-24T01:55:37.869Z,99.90
2018-07-24T01:58:06.455Z,99.90
2018-07-24T02:00:34.919Z,99.90
2018-07-24T02:03:03.088Z,99.90
2018-07-24T02:05:31.365Z,99.90
2018-07-24T02:08:01.094Z,99.90
2018-07-24T02:10:29.516Z,99.90
2018-07-24T02:12:59.133Z,99.90
2018-07-24T02:15:27.426Z,99.90
2018-07-24T02:17:55.612Z,99.90
2018-07-24T02:20:23.733Z,99.90
2018-07-24T02:22:52.276Z,99.90
2018-07-24T02:25:20.933Z,99.90
2018-07-24T02:27:49.365Z,99.90
2018-07-24T02:30:17.754Z,99.90
2018-07-24T02:32:46.117Z,99.90
2018-07-24T02:35:14.683Z,99.90
2018-07-24T02:37:42.752Z,99.90
2018-07-24T02:40:11.966Z,99.90
2018-07-24T02:42:40.343Z,99.90
2018-07-24T02:45:09.294Z,99.90
2018-07-24T02:47:37.407Z,99.90
2018-07-24T02:50:06.998Z,99.90
2018-07-24T02:52:35.377Z,99.90
2018-07-24T02:55:03.407Z,99.90
2018-07-24T02:57:32.131Z,99.90
2018-07-24T03:00:00.194Z,99.90
2018-07-24T03:02:28.825Z,99.90
2018-07-24T03:04:56.885Z,99.90
2018-07-24T03:07:27.637Z,99.90
2018-07-24T03:09:55.713Z,99.90
2018-07-24T03:12:24.137Z,99.90
2018-07-24T03:14:52.702Z,99.90
2018-07-24T03:17:21.141Z,99.90
2018-07-24T03:22:17.938Z,99.90
2018-07-24T03:24:46.063Z,99.90
2018-07-24T03:27:14.693Z,99.90
2018-07-24T03:29:42.964Z,99.90
2018-07-24T03:32:11.620Z,99.90
2018-07-24T03:34:39.781Z,99.90
2018-07-24T03:37:09.720Z,99.90
2018-07-24T03:39:37.830Z,99.90
2018-07-24T03:42:06.050Z,99.90
2018-07-24T03:44:34.891Z,99.90
2018-07-24T03:47:03.221Z,99.90
2018-07-24T03:49:31.358Z,99.90
2018-07-24T03:51:59.581Z,99.90
2018-07-24T03:56:55.836Z,99.90
2018-07-24T03:59:24.785Z,99.90
2018-07-24T04:01:53.107Z,99.90
2018-07-24T04:04:21.381Z,99.90
2018-07-24T04:06:49.551Z,99.90
2018-07-24T04:09:17.869Z,99.90
2018-07-24T04:11:46.039Z,99.90
2018-07-24T04:14:14.712Z,99.90
2018-07-24T04:16:43.785Z,99.90
2018-07-24T04:19:12.393Z,99.90
2018-07-24T04:21:41.719Z,99.90
2018-07-24T04:24:10.958Z,99.90
2018-07-24T04:26:39.031Z,99.90
2018-07-24T04:29:07.088Z,99.90
2018-07-24T04:31:35.548Z,99.90
2018-07-24T04:34:03.742Z,99.90
2018-07-24T04:36:32.159Z,99.90
2018-07-24T04:39:00.596Z,99.90
2018-07-24T04:41:28.617Z,99.90
2018-07-24T04:43:57.825Z,99.90
2018-07-24T04:46:25.885Z,99.90
2018-07-24T04:48:54.192Z,99.90
2018-07-24T04:51:22.467Z,99.90
2018-07-24T04:53:50.713Z,99.90
2018-07-24T04:56:19.091Z,99.90
2018-07-24T04:58:47.331Z,99.90
2018-07-24T05:01:15.672Z,99.90
2018-07-24T05:03:43.822Z,99.90
2018-07-24T05:06:12.393Z,99.90
2018-07-24T05:08:40.501Z,99.90
2018-07-24T05:11:08.577Z,99.90
2018-07-24T05:13:36.711Z,99.90
2018-07-24T05:16:05.679Z,99.90
2018-07-24T05:18:34.019Z,99.90
2018-07-24T05:21:03.592Z,99.90
2018-07-24T05:23:31.802Z,99.90
2018-07-24T05:26:00.704Z,99.90
2018-07-24T05:28:29.709Z,99.90
2018-07-24T05:30:57.931Z,99.90
2018-07-24T05:33:26.547Z,99.90
2018-07-24T05:35:55.972Z,99.90
2018-07-24T05:38:24.331Z,99.90
2018-07-24T05:40:52.464Z,99.90
2018-07-24T05:43:21.076Z,99.90
2018-07-24T05:45:49.698Z,99.90
2018-07-24T05:48:17.629Z,99.90
2018-07-24T05:50:46.935Z,99.90
2018-07-24T05:53:16.405Z,99.90
2018-07-24T05:55:45.530Z,99.90
2018-07-24T05:58:13.647Z,99.90
2018-07-24T06:00:41.779Z,99.90
2018-07-24T06:03:10.588Z,99.90
2018-07-24T06:05:41.329Z,99.90
2018-07-24T06:08:09.450Z,99.90
2018-07-24T06:10:37.809Z,99.90
2018-07-24T06:13:06.711Z,99.90
2018-07-24T06:15:36.204Z,99.90
2018-07-24T06:18:04.723Z,99.90
2018-07-24T06:20:34.047Z,99.90
2018-07-24T06:23:03.228Z,99.90
2018-07-24T06:25:31.985Z,99.90
2018-07-24T06:28:01.337Z,99.90
2018-07-24T06:30:29.893Z,99.90
2018-07-24T06:35:26.384Z,99.90
2018-07-24T06:37:55.235Z,99.90
2018-07-24T06:40:23.657Z,99.90
2018-07-24T06:42:53.439Z,99.90
2018-07-24T06:47:52.413Z,99.90
2018-07-24T06:50:21.701Z,99.90
2018-07-24T06:52:50.059Z,99.90
2018-07-24T06:55:21.892Z,99.90
2018-07-24T06:57:50.476Z,99.90
2018-07-24T07:00:20.000Z,99.90
2018-07-24T07:02:47.984Z,99.90
2018-07-24T07:05:17.078Z,99.90
2018-07-24T07:07:45.884Z,99.90
2018-07-24T07:10:14.761Z,99.40
2018-07-24T07:12:45.912Z,97.30
2018-07-24T07:15:14.459Z,95.60
2018-07-24T07:17:43.233Z,95.80
2018-07-24T07:20:11.911Z,95.20
2018-07-24T07:22:41.648Z,94.10
2018-07-24T07:25:09.951Z,92.90
2018-07-24T07:27:38.645Z,91.30
2018-07-24T07:30:07.458Z,91.40
2018-07-24T07:32:37.012Z,91.00
2018-07-24T07:35:05.708Z,88.00
2018-07-24T07:37:40.618Z,89.70
2018-07-24T07:40:10.601Z,89.00
2018-07-24T07:42:40.226Z,89.00
2018-07-24T07:45:08.593Z,90.30
2018-07-24T07:47:36.960Z,89.60
2018-07-24T07:52:35.570Z,90.20
2018-07-24T07:55:04.315Z,88.60
2018-07-24T07:57:34.050Z,84.90
2018-07-24T08:00:04.710Z,84.60
2018-07-24T08:02:32.743Z,84.60
2018-07-24T08:05:01.744Z,82.20
2018-07-24T08:07:30.281Z,82.70
2018-07-24T08:09:58.660Z,79.50
2018-07-24T08:12:27.881Z,79.80
2018-07-24T08:14:56.736Z,83.40
2018-07-24T08:17:25.968Z,82.90
2018-07-24T08:19:54.313Z,79.80
2018-07-24T08:22:22.551Z,77.10
2018-07-24T08:24:51.620Z,76.40
2018-07-24T08:27:21.064Z,77.70
2018-07-24T08:29:49.120Z,76.20
2018-07-24T08:32:18.125Z,77.80
2018-07-24T08:34:46.107Z,78.60
2018-07-24T08:37:14.350Z,75.50
2018-07-24T08:39:42.337Z,73.10
2018-07-24T08:42:12.400Z,78.30
2018-07-24T08:44:43.433Z,78.00
2018-07-24T08:47:11.582Z,74.30
2018-07-24T08:49:40.831Z,73.20
2018-07-24T08:52:09.157Z,75.60
2018-07-24T08:54:37.622Z,77.10
2018-07-24T08:57:05.565Z,73.40
2018-07-24T08:59:36.345Z,73.00
2018-07-24T09:02:06.434Z,69.70
2018-07-24T09:04:36.078Z,68.80
2018-07-24T09:07:04.970Z,65.60
2018-07-24T09:09:36.416Z,64.50
2018-07-24T09:12:07.304Z,62.30
2018-07-24T09:14:35.927Z,61.00
2018-07-24T09:17:04.587Z,59.30
2018-07-24T09:19:33.060Z,58.60
2018-07-24T09:22:03.371Z,58.80
2018-07-24T09:24:32.085Z,57.70
2018-07-24T09:27:01.011Z,56.80
2018-07-24T09:29:30.347Z,56.20
2018-07-24T09:31:58.673Z,55.50
2018-07-24T09:34:27.351Z,53.60
2018-07-24T09:36:55.445Z,54.40
2018-07-24T09:39:23.749Z,55.20
2018-07-24T09:41:52.005Z,55.40
2018-07-24T09:44:20.636Z,56.20
2018-07-24T09:46:48.768Z,55.60
2018-07-24T09:49:17.085Z,57.10
2018-07-24T09:51:46.213Z,59.90
2018-07-24T09:54:14.585Z,61.10
2018-07-24T09:56:43.085Z,62.20
2018-07-24T09:59:11.924Z,63.40
2018-07-24T10:01:41.059Z,63.60
2018-07-24T10:04:10.299Z,63.20
2018-07-24T10:06:39.597Z,63.60
2018-07-24T10:09:09.161Z,63.10
2018-07-24T10:11:37.269Z,64.00
2018-07-24T10:14:06.519Z,63.80
2018-07-24T10:16:34.997Z,63.20
2018-07-24T10:19:03.072Z,63.50
2018-07-24T10:21:32.113Z,63.50
2018-07-24T10:24:00.644Z,63.30
2018-07-24T10:26:28.881Z,63.60
2018-07-24T10:28:57.414Z,62.90
2018-07-24T10:31:26.115Z,63.60
2018-07-24T10:33:54.673Z,63.80
2018-07-24T10:36:23.797Z,63.10
2018-07-24T10:38:54.413Z,63.40
2018-07-24T10:41:24.252Z,63.60
2018-07-24T10:43:55.393Z,63.80
2018-07-24T10:46:24.357Z,63.50
2018-07-24T10:48:52.735Z,63.40
2018-07-24T10:51:21.164Z,63.20
2018-07-24T10:53:50.948Z,61.80
2018-07-24T10:56:19.094Z,61.70
2018-07-24T10:58:47.333Z,61.90
2018-07-24T11:01:16.563Z,61.60
2018-07-24T11:03:47.031Z,60.40
2018-07-24T11:06:14.966Z,60.00
2018-07-24T11:08:44.467Z,59.70
2018-07-24T11:11:13.121Z,59.80
2018-07-24T11:13:41.298Z,59.40
2018-07-24T11:16:10.241Z,59.40
2018-07-24T11:18:40.347Z,59.80
2018-07-24T11:21:12.569Z,58.90
2018-07-24T11:23:42.544Z,60.00
2018-07-24T11:26:14.938Z,59.70
2018-07-24T11:28:46.043Z,59.60
2018-07-24T11:31:17.573Z,60.80
2018-07-24T11:33:47.364Z,61.00
2018-07-24T11:36:15.843Z,61.30
2018-07-24T11:38:46.150Z,60.40
2018-07-24T11:41:15.704Z,61.00
2018-07-24T11:43:49.644Z,60.90
2018-07-24T11:46:18.672Z,60.80
2018-07-24T11:48:47.092Z,60.60
2018-07-24T11:51:22.269Z,61.10
2018-07-24T11:53:51.349Z,60.20
2018-07-24T11:56:21.117Z,59.80
2018-07-24T11:58:49.741Z,59.70
2018-07-24T12:01:17.968Z,59.40
2018-07-24T12:03:50.301Z,59.90
2018-07-24T12:06:22.017Z,60.00
2018-07-24T12:08:50.588Z,59.10
2018-07-24T12:11:21.480Z,58.60
2018-07-24T12:13:50.785Z,59.20
2018-07-24T12:18:50.063Z,59.30
2018-07-24T12:26:18.299Z,58.70
2018-07-24T12:28:47.230Z,58.90
2018-07-24T12:31:23.829Z,58.60
2018-07-24T12:33:52.679Z,58.50
2018-07-24T12:36:25.648Z,58.90
2018-07-24T12:41:23.545Z,58.10
2018-07-24T12:43:52.207Z,58.10
2018-07-24T12:46:21.597Z,57.60
2018-07-24T12:48:50.564Z,57.70
2018-07-24T12:51:21.118Z,57.70
2018-07-24T12:53:49.273Z,58.00
2018-07-24T12:56:19.416Z,58.20
2018-07-24T12:58:49.590Z,57.10
2018-07-24T13:01:18.284Z,56.80
2018-07-24T13:03:47.535Z,56.70
2018-07-24T13:06:17.880Z,56.80
2018-07-24T13:08:46.090Z,56.10
2018-07-24T13:11:20.174Z,56.20
2018-07-24T13:13:50.880Z,56.10
2018-07-24T13:16:19.600Z,56.10
2018-07-24T13:18:49.269Z,55.80
2018-07-24T13:21:26.274Z,55.20
2018-07-24T13:23:56.948Z,54.90
2018-07-24T13:26:26.637Z,55.80
2018-07-24T13:28:55.000Z,56.10
2018-07-24T13:31:23.875Z,55.50
2018-07-24T13:33:52.630Z,56.00
2018-07-24T13:36:21.189Z,55.40
2018-07-24T13:38:50.230Z,55.20
2018-07-24T13:41:19.384Z,55.00
2018-07-24T13:43:47.607Z,54.80
2018-07-24T13:46:17.231Z,55.10
2018-07-24T13:48:50.767Z,55.20
2018-07-24T13:51:20.558Z,55.60
2018-07-24T13:53:49.809Z,55.80
2018-07-24T13:56:24.275Z,55.80
2018-07-24T13:58:52.327Z,56.50
2018-07-24T14:01:21.022Z,55.40
2018-07-24T14:03:49.103Z,55.20
2018-07-24T14:06:18.834Z,54.80
2018-07-24T14:08:47.615Z,54.80
2018-07-24T14:11:16.380Z,54.90
2018-07-24T14:13:44.544Z,55.00
2018-07-24T14:16:12.596Z,54.80
2018-07-24T14:18:44.233Z,55.20
2018-07-24T14:21:13.807Z,55.50
2018-07-24T14:23:42.885Z,54.10
2018-07-24T14:26:11.667Z,53.90
2018-07-24T14:28:40.250Z,53.30
2018-07-24T14:31:08.484Z,54.00
2018-07-24T14:33:36.897Z,54.00
2018-07-24T14:36:06.225Z,54.20
2018-07-24T14:38:38.641Z,53.80
2018-07-24T14:41:09.936Z,53.90
2018-07-24T14:43:41.847Z,53.70
2018-07-24T14:46:09.921Z,53.50
2018-07-24T14:48:39.501Z,52.80
2018-07-24T14:51:12.509Z,51.90
2018-07-24T14:53:44.308Z,51.80
2018-07-24T14:56:15.096Z,52.80
2018-07-24T14:58:44.509Z,52.20
2018-07-24T15:01:14.450Z,52.60
2018-07-24T15:03:44.186Z,52.30
2018-07-24T15:06:13.563Z,52.80
2018-07-24T15:08:46.146Z,52.60
2018-07-24T15:11:15.431Z,52.90
2018-07-24T15:13:44.484Z,52.70
2018-07-24T15:16:15.348Z,52.40
2018-07-24T15:18:44.747Z,52.20
2018-07-24T15:21:20.227Z,52.00
2018-07-24T15:23:48.611Z,52.30
2018-07-24T15:26:18.671Z,52.40
2018-07-24T15:28:49.326Z,51.70
2018-07-24T15:31:18.376Z,51.50
2018-07-24T15:38:43.262Z,51.70
2018-07-24T15:43:56.926Z,51.60
2018-07-24T15:46:27.152Z,51.40
2018-07-24T15:48:55.618Z,51.40
2018-07-24T15:51:23.774Z,51.20
2018-07-24T15:53:53.373Z,51.50
2018-07-24T15:56:22.813Z,51.60
2018-07-24T15:58:52.872Z,51.40
2018-07-24T16:01:21.140Z,51.90
2018-07-24T16:03:49.792Z,52.00
2018-07-24T16:06:20.551Z,52.10
2018-07-24T16:08:50.118Z,51.80
2018-07-24T16:11:18.744Z,51.60
2018-07-24T16:13:49.743Z,51.50
2018-07-24T16:16:20.778Z,51.60
2018-07-24T16:18:49.797Z,51.20
2018-07-24T16:21:18.934Z,51.60
2018-07-24T16:23:47.577Z,51.30
2018-07-24T16:26:15.692Z,51.30
2018-07-24T16:28:43.754Z,51.40
2018-07-24T16:31:13.160Z,51.50
2018-07-24T16:33:41.885Z,51.60
2018-07-24T16:36:10.299Z,51.40
2018-07-24T16:38:38.943Z,51.40
2018-07-24T16:41:07.333Z,51.10
2018-07-24T16:43:35.473Z,50.90
2018-07-24T16:46:05.274Z,51.30
2018-07-24T16:48:34.220Z,51.20
2018-07-24T16:51:03.751Z,51.00
2018-07-24T16:53:32.098Z,51.10
2018-07-24T16:56:04.468Z,51.10
2018-07-24T16:58:33.882Z,51.50
2018-07-24T17:01:02.761Z,51.30
2018-07-24T17:03:33.067Z,51.70
2018-07-24T17:06:01.273Z,52.00
2018-07-24T17:08:29.619Z,51.50
2018-07-24T17:10:59.280Z,51.60
2018-07-24T17:13:27.386Z,51.70
2018-07-24T17:16:00.386Z,51.60
2018-07-24T17:18:28.975Z,51.70
2018-07-24T17:20:58.303Z,51.80
2018-07-24T17:23:26.958Z,52.20
2018-07-24T17:25:55.758Z,52.00
2018-07-24T17:28:24.926Z,51.80
2018-07-24T17:30:54.491Z,51.90
2018-07-24T17:33:24.422Z,52.30
2018-07-24T17:36:55.985Z,52.30
2018-07-24T17:39:24.384Z,51.80
2018-07-24T17:41:52.421Z,52.20
2018-07-24T17:44:22.516Z,51.70
2018-07-24T17:46:50.681Z,52.10
2018-07-24T17:49:18.682Z,51.60
2018-07-24T17:51:47.797Z,51.60
2018-07-24T17:54:16.320Z,51.80
2018-07-24T17:56:44.379Z,52.80
2018-07-24T17:59:14.276Z,53.30
2018-07-24T18:01:42.629Z,53.40
2018-07-24T18:04:10.996Z,53.80
2018-07-24T18:06:39.232Z,53.40
2018-07-24T18:09:11.844Z,53.10
2018-07-24T18:11:41.664Z,53.20
2018-07-24T18:16:39.318Z,55.00
2018-07-24T18:19:07.526Z,55.40
2018-07-24T18:21:37.264Z,55.90
2018-07-24T18:24:06.124Z,55.90
2018-07-24T18:26:36.651Z,56.30
2018-07-24T18:29:05.469Z,56.30
2018-07-24T18:31:35.214Z,56.90
2018-07-24T18:34:03.250Z,57.10
2018-07-24T18:36:33.331Z,57.30
2018-07-24T18:39:01.348Z,57.70
2018-07-24T18:41:32.014Z,57.40
2018-07-24T18:44:00.313Z,57.70
2018-07-24T18:46:29.334Z,57.80
2018-07-24T18:48:59.438Z,58.00
2018-07-24T18:51:28.077Z,58.60
2018-07-24T18:53:58.582Z,58.80
2018-07-24T18:56:28.521Z,59.30
2018-07-24T18:58:57.036Z,60.40
2018-07-24T19:01:25.713Z,60.20
2018-07-24T19:03:55.966Z,61.10
2018-07-24T19:06:24.010Z,60.80
2018-07-24T19:08:52.049Z,61.10
2018-07-24T19:11:20.169Z,61.50
2018-07-24T19:13:48.476Z,62.00
2018-07-24T19:16:16.447Z,62.20
2018-07-24T19:18:45.080Z,62.80
2018-07-24T19:21:14.000Z,63.20
2018-07-24T19:23:42.013Z,63.80
2018-07-24T19:26:11.106Z,64.50
2018-07-24T19:28:39.782Z,65.30
2018-07-24T19:31:07.975Z,65.50
2018-07-24T19:33:38.346Z,64.30
2018-07-24T19:36:06.988Z,63.40
2018-07-24T19:38:35.459Z,62.20
2018-07-24T19:41:07.166Z,62.60
2018-07-24T19:43:37.693Z,62.40
2018-07-24T19:46:06.042Z,63.00
2018-07-24T19:48:35.007Z,63.10
2018-07-24T19:51:06.220Z,63.60
2018-07-24T19:53:34.889Z,63.90
2018-07-24T19:56:03.709Z,64.50
2018-07-24T19:58:31.720Z,64.90
2018-07-24T20:01:00.530Z,65.20
2018-07-24T20:03:33.136Z,65.60
2018-07-24T20:06:02.462Z,65.70
2018-07-24T20:08:30.686Z,66.00
2018-07-24T20:11:02.669Z,66.40
2018-07-24T20:13:31.578Z,66.80
2018-07-24T20:16:01.173Z,67.00
2018-07-24T20:18:29.392Z,67.30
2018-07-24T20:21:00.414Z,67.60
2018-07-24T20:26:02.002Z,68.20
2018-07-24T20:31:01.727Z,69.00
2018-07-24T20:33:32.112Z,69.00
2018-07-24T20:36:01.318Z,69.30
2018-07-24T20:38:29.376Z,69.50
2018-07-24T20:40:59.468Z,69.50
2018-07-24T20:43:27.680Z,69.60
2018-07-24T20:45:56.233Z,69.80
2018-07-24T20:48:28.943Z,70.30
2018-07-24T20:50:57.313Z,70.80
2018-07-24T20:53:25.453Z,71.50
2018-07-24T20:55:55.935Z,72.10
2018-07-24T20:58:25.665Z,72.50
2018-07-24T21:00:56.578Z,72.90
2018-07-24T21:03:26.801Z,73.40
2018-07-24T21:06:02.823Z,73.60
2018-07-24T21:08:31.368Z,74.30
2018-07-24T21:11:02.593Z,74.60
2018-07-24T21:13:32.369Z,74.80
2018-07-24T21:16:01.305Z,75.10
2018-07-24T21:18:30.529Z,75.50
2018-07-24T21:21:01.166Z,75.90
2018-07-24T21:23:29.255Z,76.20
2018-07-24T21:25:58.472Z,76.80
2018-07-24T21:28:27.608Z,79.40
2018-07-24T21:30:56.199Z,81.20
2018-07-24T21:33:25.696Z,82.50
2018-07-24T21:35:57.561Z,84.30
2018-07-24T21:38:28.556Z,85.30
2018-07-24T21:40:56.905Z,86.60
2018-07-24T21:43:26.976Z,87.70
2018-07-24T21:46:00.079Z,88.90
2018-07-24T21:48:28.649Z,89.70
2018-07-24T21:50:58.718Z,90.10
2018-07-24T21:53:27.339Z,90.60
2018-07-24T21:55:55.990Z,91.40
2018-07-24T21:58:25.293Z,91.30
2018-07-24T22:01:00.161Z,91.70
2018-07-24T22:03:28.285Z,91.90
2018-07-24T22:06:00.289Z,92.20
2018-07-24T22:08:29.348Z,92.30
2018-07-24T22:10:58.617Z,92.50
2018-07-24T22:13:26.646Z,92.60
2018-07-24T22:15:58.296Z,92.80
2018-07-24T22:18:26.948Z,93.00
2018-07-24T22:20:56.497Z,93.20
2018-07-24T22:23:24.672Z,93.30
2018-07-24T22:25:52.937Z,93.40
2018-07-24T22:30:49.583Z,93.80
2018-07-24T22:33:18.252Z,93.90
2018-07-24T22:35:46.791Z,94.10
2018-07-24T22:38:16.611Z,94.60
2018-07-24T22:40:48.764Z,94.70
2018-07-24T22:43:19.483Z,95.00
2018-07-24T22:45:47.597Z,95.20
2018-07-24T22:48:16.427Z,95.30
2018-07-24T22:50:45.889Z,95.60
2018-07-24T22:53:16.284Z,96.00
2018-07-24T22:55:46.020Z,96.30
2018-07-24T22:58:14.855Z,96.60
2018-07-24T23:00:43.845Z,96.90
2018-07-24T23:03:12.948Z,97.00
2018-07-24T23:05:42.249Z,97.10
2018-07-24T23:08:12.581Z,97.20
2018-07-24T23:10:41.335Z,97.30
2018-07-24T23:13:09.452Z,97.60
2018-07-24T23:15:39.016Z,97.60
2018-07-24T23:18:09.076Z,97.70
2018-07-24T23:20:38.299Z,97.70
2018-07-24T23:23:07.299Z,97.90
2018-07-24T23:25:35.683Z,98.20
2018-07-24T23:28:04.232Z,98.40
2018-07-24T23:30:37.086Z,98.50
2018-07-24T23:33:05.533Z,98.80
2018-07-24T23:35:34.076Z,99.00
2018-07-24T23:38:04.069Z,99.20
2018-07-24T23:40:35.241Z,99.30
2018-07-24T23:43:03.533Z,99.30
2018-07-24T23:45:33.287Z,99.30
2018-07-24T23:48:01.649Z,99.40
2018-07-24T23:50:32.089Z,99.50
2018-07-24T23:53:05.327Z,99.40
2018-07-24T23:55:36.212Z,99.90
2018-07-24T23:58:06.653Z,99.50
